MUSCMUVR

Guest
Details From MUSC - ABEL SANTAMARIA
To MUVR - JUAN GUALBERTO GOMEZ INTL
Flight Number -
Tags generated
Created
Modified
Stats Distance 89 nm / 165 km
Max Altitude 1,000 ft / 305 m
Waypoints 3
Social Downloads 0
Likes 0
Share

Download

Looking for another format? Having issues loading an existing format? Contact us
Advertisement - Login to hide

Notes

Basic altitude profile: - Ascent Rate: 2500ft/min - Ascent Speed: 250kts - Cruise Altitude: 35000ft - Cruise Speed: 420kts - Descent Rate: 1500ft/min - Descent Speed: 250kts Options: - Use NATs: yes - Use PACOTS: no - Use low airways: yes - Use high airways: no

Route

MUSC CLARA MUVR

ID Type Via Altitude (ft/m) Position (lat/lon) Dist (leg/tot) Name
O MUSC APT - 0 / 0 22.49219 / -79.94361 - / 0 nm ABEL SANTAMARIA
CLARA FIX - 1,000 / 305 22.48083 / -79.99333 2 / 2 nm
O MUVR APT - 0 / 0 23.03444 / -81.43527 86 / 89 nm JUAN GUALBERTO GOMEZ INTL

Altitude Profile

Advertisement - Login to hide

MUSC

Details ICAO MUSC (SNU)
Name Abel Santamaria Intl
Region Cuba
Timezone America/Havana (UTC-4.0)
Stats Elevation 337 ft / 103 m (AMSL)
Location 22.492200° -79.943600°
Runways 1
Magnetic Variation 6.662° W

METAR

MUSC 220850Z 11004KT 8000 NSC 23/22 Q1011

Decode

TAF

MUSC 220500Z 2206/2306 VRB02KT 9000 SCT020 BECMG 2213/2216 09009KT TEMPO 2217/2224 3000 TSRA SCT018CB BKN020 BECMG 2301/2303 VRB02KT

Decode

Departure Runways

ID Width Length Bearing (true/mag) Surface Threshold Overrun Markings Lighting
08 151 ft / 46 m 9,907 ft / 3,020 m 76.07° / 82.74° CONCRETE 0 ft / 0 m 531 ft / 162 m PREC-APP EDGE THRESHOLD SALS REIL-OMNI
26 151 ft / 46 m 9,907 ft / 3,020 m 256.08° / 262.75° CONCRETE 0 ft / 0 m 167 ft / 51 m PREC-APP EDGE THRESHOLD REIL-OMNI

MUVR

Details ICAO MUVR (VRA)
Name JUAN GUALBERTO GOMEZ INTL
Region Cuba
Timezone America/Havana (UTC-4.0)
Stats Elevation 208 ft / 63 m (AMSL)
Location 23.034400° -81.435300°
Runways 1
Magnetic Variation 5.842° W

METAR

MUVR 220850Z 11002KT 9000 FEW002 22/22 Q1011

Decode

TAF

MUVR 220500Z 2206/2306 VRB02KT 9000 SCT020 BECMG 2213/2216 09009KT TEMPO 2218/2224 5000 TSRA SCT018CB BKN020 BECMG 2301/2303 VRB02KT

Decode

Destination Runways

ID Width Length Bearing (true/mag) Surface Threshold Overrun Markings Lighting
06 148 ft / 45 m 11,508 ft / 3,508 m 55.47° / 61.31° ASPHALT 0 ft / 0 m 0 ft / 0 m PREC-APP CENTERLINE EDGE THRESHOLD ALSF-I TDZ
24 148 ft / 45 m 11,508 ft / 3,508 m 235.48° / 241.32° ASPHALT 0 ft / 0 m 0 ft / 0 m PREC-APP CENTERLINE EDGE THRESHOLD SALS TDZ

Approach Navaids

Runway Type Ident Frequency Range Bearing (true/mag) Slope Elevation
06 MM MM - - 55.47° / 61.31 ° - 210 ft / 64 m (AMSL)
06 LOC-ILS IVR 111.30 MHz 18 nm / 33 km 55.48° / 61.32 ° - 208 ft / 63 m (AMSL)
06 GS IVR 111.30 MHz 10 nm / 19 km 55.48° / 61.32 ° 3.00° 208 ft / 63 m (AMSL)
06 OM OM - - 55.47° / 61.31 ° - 210 ft / 64 m (AMSL)